Time;durP1;ratioP1;P1;durP2;ratioP2;P2;SDS_P1;SDS_P2;PMS_P1;PMS_P2;Temp;Humidity;BMP_temperature;BMP_pressure;BME280_temperature;BME280_humidity;BME280_pressure;Samples;Min_cycle;Max_cycle;Signal;HPM_P1;HPM_P2
2021/06/13 00:01:54;;;;;;;12.00;5.53;;;15.50;1.00;;;;;;4993266;28;20241;-77
2021/06/13 00:04:21;;;;;;;11.23;4.40;;;15.40;1.00;;;;;;4973325;28;20236;-77
2021/06/13 00:06:52;;;;;;;10.63;5.07;;;15.40;1.00;;;;;;5007586;28;20196;-76
2021/06/13 00:09:22;;;;;;;15.30;5.20;;;15.50;1.00;;;;;;4989225;28;20309;-76
2021/06/13 00:11:50;;;;;;;11.03;4.90;;;15.50;1.00;;;;;;5006873;28;20289;-76
2021/06/13 00:14:18;;;;;;;8.73;5.57;;;15.30;1.00;;;;;;5019565;28;20211;-76
2021/06/13 00:16:45;;;;;;;12.20;5.17;;;15.30;1.00;;;;;;5007835;28;20623;-76
2021/06/13 00:19:12;;;;;;;10.07;4.87;;;15.40;1.00;;;;;;5004281;28;20575;-76
2021/06/13 00:21:39;;;;;;;11.23;5.10;;;15.40;1.00;;;;;;4991034;28;20606;-76
2021/06/13 00:24:07;;;;;;;10.53;4.83;;;15.40;1.00;;;;;;4993981;28;20574;-76
2021/06/13 00:26:34;;;;;;;10.87;4.73;;;15.50;1.00;;;;;;5005015;28;20197;-77
2021/06/13 00:29:02;;;;;;;12.43;4.80;;;15.50;1.00;;;;;;4994897;28;20242;-77
2021/06/13 00:31:29;;;;;;;9.87;5.87;;;15.40;1.00;;;;;;4986373;28;20232;-77
2021/06/13 00:33:56;;;;;;;12.00;5.37;;;15.40;1.00;;;;;;5011097;28;20572;-77
2021/06/13 00:36:24;;;;;;;10.83;5.30;;;15.30;1.00;;;;;;5000666;28;20222;-77
2021/06/13 00:38:51;;;;;;;10.60;4.90;;;15.40;1.00;;;;;;5025839;28;20222;-76
2021/06/13 00:41:20;;;;;;;12.47;4.83;;;15.40;1.00;;;;;;5005131;28;20198;-76
2021/06/13 00:43:47;;;;;;;9.70;6.50;;;15.40;1.00;;;;;;4982937;28;20288;-76
2021/06/13 00:46:14;;;;;;;14.33;7.10;;;15.30;1.00;;;;;;4994832;28;20207;-76
2021/06/13 00:48:42;;;;;;;16.00;7.93;;;15.30;1.00;;;;;;5012378;28;20192;-76
2021/06/13 00:51:09;;;;;;;14.57;6.33;;;15.30;1.00;;;;;;4996484;28;21098;-77
2021/06/13 00:53:36;;;;;;;11.00;6.03;;;15.40;1.00;;;;;;5011113;28;20215;-77
2021/06/13 00:56:04;;;;;;;14.60;5.30;;;15.30;1.00;;;;;;4998493;28;20253;-77
2021/06/13 00:58:32;;;;;;;13.40;5.23;;;15.20;1.00;;;;;;5012048;28;20203;-77
2021/06/13 01:00:59;;;;;;;9.90;4.87;;;15.00;1.00;;;;;;5009904;28;20308;-77
2021/06/13 01:03:26;;;;;;;13.10;5.53;;;15.10;1.00;;;;;;5013416;28;20256;-77
2021/06/13 01:05:53;;;;;;;12.77;5.57;;;15.10;1.00;;;;;;4999904;28;20735;-77
2021/06/13 01:08:42;;;;;;;9.83;4.93;;;15.10;1.00;;;;;;5010728;28;20217;-77
2021/06/13 01:11:28;;;;;;;10.30;4.97;;;15.10;1.00;;;;;;5010785;28;20320;-77
2021/06/13 01:14:26;;;;;;;11.40;5.17;;;15.00;1.00;;;;;;5025002;28;20195;-76
2021/06/13 01:17:05;;;;;;;11.50;4.40;;;14.70;1.00;;;;;;5029469;28;20202;-76
2021/06/13 01:19:34;;;;;;;16.40;5.87;;;14.90;1.00;;;;;;5011959;28;20624;-76
2021/06/13 01:22:26;;;;;;;13.13;6.20;;;14.80;1.00;;;;;;5014904;28;20284;-76
2021/06/13 01:25:33;;;;;;;12.10;5.27;;;14.60;31.00;;;;;;5024031;28;20233;-76
2021/06/13 01:28:26;;;;;;;8.03;5.03;;;14.90;1.00;;;;;;5012826;28;20205;-76
2021/06/13 01:30:55;;;;;;;7.47;5.23;;;14.70;1.00;;;;;;5030397;28;20253;-76
2021/06/13 01:33:22;;;;;;;10.47;4.70;;;14.70;18.90;;;;;;5016432;28;20720;-76
2021/06/13 01:35:53;;;;;;;10.47;4.90;;;14.50;40.40;;;;;;5023448;28;20292;-76
2021/06/13 01:38:20;;;;;;;12.83;5.27;;;14.60;34.10;;;;;;5012473;28;20292;-75
2021/06/13 01:40:48;;;;;;;7.43;5.33;;;14.60;67.00;;;;;;4993512;28;21522;-75
2021/06/13 01:43:16;;;;;;;13.87;5.33;;;14.50;65.60;;;;;;4993958;28;20203;-75
2021/06/13 01:45:45;;;;;;;15.53;5.70;;;14.40;99.90;;;;;;4996388;28;20203;-75
2021/06/13 01:48:14;;;;;;;13.67;6.20;;;14.60;97.20;;;;;;4995671;28;20294;-75
2021/06/13 01:50:42;;;;;;;12.23;5.93;;;14.40;84.30;;;;;;5016396;28;20272;-76
2021/06/13 01:53:13;;;;;;;18.37;6.77;;;14.60;98.50;;;;;;5003881;28;20199;-76
2021/06/13 01:55:44;;;;;;;12.13;6.20;;;14.60;77.40;;;;;;5026354;28;20682;-77
2021/06/13 01:58:14;;;;;;;13.63;5.73;;;14.40;99.90;;;;;;5019427;28;20300;-77
2021/06/13 02:00:43;;;;;;;10.23;6.07;;;14.40;99.90;;;;;;5006697;28;20298;-77
2021/06/13 02:03:11;;;;;;;12.20;6.00;;;14.50;99.90;;;;;;4996784;28;20225;-78
2021/06/13 02:05:39;;;;;;;14.83;5.90;;;14.30;99.90;;;;;;4996532;28;20195;-78
2021/06/13 02:08:07;;;;;;;10.40;5.60;;;14.60;99.90;;;;;;4997163;28;20207;-77
2021/06/13 02:10:35;;;;;;;12.30;5.73;;;14.70;86.50;;;;;;5014427;28;20207;-77
2021/06/13 02:13:02;;;;;;;11.33;6.00;;;14.70;74.30;;;;;;4997938;28;20267;-78
2021/06/13 02:15:29;;;;;;;17.17;6.90;;;14.50;95.30;;;;;;5000196;28;20874;-78
2021/06/13 02:17:57;;;;;;;13.80;6.50;;;14.50;99.90;;;;;;5001167;28;20295;-78
2021/06/13 02:20:28;;;;;;;14.00;6.83;;;14.70;88.00;;;;;;5011946;28;20226;-78
2021/06/13 02:22:56;;;;;;;12.07;6.27;;;14.70;92.70;;;;;;5029969;28;20277;-78
2021/06/13 02:25:24;;;;;;;19.50;6.00;;;14.70;79.80;;;;;;5005141;28;20563;-78
2021/06/13 02:27:56;;;;;;;12.87;6.67;;;14.60;97.50;;;;;;5017038;28;20193;-79
2021/06/13 02:30:26;;;;;;;14.93;6.77;;;14.50;99.90;;;;;;5007291;28;20216;-77
2021/06/13 02:32:57;;;;;;;13.37;5.70;;;14.50;99.90;;;;;;5011349;28;20263;-77
2021/06/13 02:35:27;;;;;;;11.37;6.20;;;14.40;99.90;;;;;;5023001;28;20224;-78
2021/06/13 02:37:56;;;;;;;14.83;6.03;;;14.50;99.90;;;;;;4988422;28;20207;-78
2021/06/13 02:40:25;;;;;;;19.23;6.90;;;14.40;99.90;;;;;;5006263;28;20598;-78
2021/06/13 02:42:52;;;;;;;17.33;5.97;;;14.40;99.90;;;;;;5002218;28;20231;-78
2021/06/13 02:45:21;;;;;;;16.27;6.27;;;14.40;99.90;;;;;;4990609;28;20257;-78
2021/06/13 02:47:50;;;;;;;13.50;6.07;;;14.40;99.90;;;;;;5007152;28;20194;-77
2021/06/13 02:50:20;;;;;;;13.03;6.17;;;14.50;99.90;;;;;;5009806;28;20200;-77
2021/06/13 02:53:10;;;;;;;12.40;6.13;;;14.50;99.90;;;;;;5014570;28;20284;-77
2021/06/13 02:55:50;;;;;;;11.37;6.43;;;14.50;99.90;;;;;;5009929;28;20222;-77
2021/06/13 02:58:30;;;;;;;13.80;6.60;;;14.50;99.90;;;;;;5007160;28;20270;-77
2021/06/13 03:00:57;;;;;;;9.37;6.17;;;14.30;99.90;;;;;;5009265;28;20219;-77
2021/06/13 03:03:27;;;;;;;14.10;6.27;;;14.40;99.90;;;;;;5029477;28;20194;-77
2021/06/13 03:05:56;;;;;;;17.33;6.90;;;14.40;99.90;;;;;;5008394;28;20263;-77
2021/06/13 03:08:23;;;;;;;15.00;5.87;;;14.30;99.90;;;;;;5021005;28;20234;-77
2021/06/13 03:10:52;;;;;;;14.97;6.93;;;14.40;99.90;;;;;;5006495;28;20216;-77
2021/06/13 03:13:24;;;;;;;13.63;6.60;;;14.20;99.90;;;;;;4992700;28;20246;-77
2021/06/13 03:15:51;;;;;;;13.73;6.67;;;14.20;99.90;;;;;;5012077;28;20612;-78
2021/06/13 03:18:19;;;;;;;13.43;6.47;;;14.20;99.90;;;;;;4997242;28;20237;-78
2021/06/13 03:20:48;;;;;;;12.57;6.70;;;14.20;99.90;;;;;;4973616;28;20221;-77
2021/06/13 03:23:17;;;;;;;12.93;5.93;;;14.40;99.90;;;;;;5016838;28;20233;-77
2021/06/13 03:25:44;;;;;;;14.93;7.00;;;14.40;99.90;;;;;;5012591;28;20238;-77
2021/06/13 03:28:11;;;;;;;14.67;6.30;;;14.50;99.90;;;;;;5014428;28;20218;-77
2021/06/13 03:30:38;;;;;;;18.50;6.87;;;14.30;99.90;;;;;;5011586;28;20206;-77
2021/06/13 03:33:06;;;;;;;17.60;6.63;;;14.20;99.90;;;;;;5014199;28;20338;-77
2021/06/13 03:35:34;;;;;;;16.30;6.50;;;14.10;99.90;;;;;;5014024;28;20270;-77
2021/06/13 03:38:02;;;;;;;17.70;6.20;;;14.20;99.90;;;;;;5012561;28;20677;-77
2021/06/13 03:40:31;;;;;;;16.83;6.93;;;14.20;99.90;;;;;;4995341;28;20597;-77
2021/06/13 03:42:58;;;;;;;13.80;6.47;;;14.30;99.90;;;;;;4996063;28;20205;-77
2021/06/13 03:45:27;;;;;;;14.90;6.23;;;14.20;99.90;;;;;;4999155;28;20235;-77
2021/06/13 03:47:57;;;;;;;12.20;6.50;;;14.20;99.90;;;;;;4999977;28;20554;-77
2021/06/13 03:50:25;;;;;;;13.43;6.57;;;14.30;99.90;;;;;;4998039;28;20204;-77
2021/06/13 03:52:52;;;;;;;13.97;7.17;;;14.30;99.90;;;;;;5013262;28;20196;-76
2021/06/13 03:55:19;;;;;;;14.67;6.50;;;14.30;99.90;;;;;;5000750;28;20209;-77
2021/06/13 03:57:49;;;;;;;13.80;6.47;;;14.20;99.90;;;;;;5026511;28;20591;-77
2021/06/13 04:00:17;;;;;;;18.03;6.80;;;14.30;99.90;;;;;;5033024;28;20319;-78
2021/06/13 04:02:47;;;;;;;16.53;7.57;;;14.20;99.90;;;;;;4995510;28;20221;-78
2021/06/13 04:05:16;;;;;;;11.93;6.97;;;14.30;99.90;;;;;;5003864;28;20718;-78
2021/06/13 04:07:44;;;;;;;13.97;6.43;;;14.30;99.90;;;;;;5013229;28;20264;-77
2021/06/13 04:10:13;;;;;;;15.10;6.90;;;14.30;99.90;;;;;;5014600;28;20242;-77
2021/06/13 04:12:40;;;;;;;14.70;7.03;;;14.30;99.90;;;;;;5004427;28;20237;-77
2021/06/13 04:15:12;;;;;;;17.77;7.37;;;14.50;99.90;;;;;;4996093;28;20296;-77
2021/06/13 04:17:39;;;;;;;16.83;7.03;;;14.30;99.90;;;;;;4997683;28;20201;-77
2021/06/13 04:20:11;;;;;;;18.57;7.00;;;14.30;99.90;;;;;;5019716;28;20618;-76
2021/06/13 04:22:39;;;;;;;17.47;7.70;;;14.40;99.90;;;;;;5007835;28;20210;-77
2021/06/13 04:25:12;;;;;;;14.77;7.33;;;14.30;99.90;;;;;;5032502;28;20290;-77
2021/06/13 04:27:41;;;;;;;12.63;6.67;;;14.40;99.90;;;;;;5023943;28;20297;-78
2021/06/13 04:30:09;;;;;;;17.87;7.27;;;14.40;99.90;;;;;;5014542;28;20669;-78
2021/06/13 04:32:36;;;;;;;13.83;6.97;;;14.50;99.90;;;;;;5008460;28;20248;-78
2021/06/13 04:35:04;;;;;;;11.33;6.03;;;14.50;99.90;;;;;;4999535;28;20210;-77
2021/06/13 04:37:31;;;;;;;10.83;6.20;;;14.30;99.90;;;;;;4997076;28;20423;-77
2021/06/13 04:39:58;;;;;;;15.07;6.60;;;14.40;99.90;;;;;;5007783;28;20293;-77
2021/06/13 04:42:25;;;;;;;15.60;6.73;;;14.50;99.90;;;;;;5011353;28;20879;-77
2021/06/13 04:44:52;;;;;;;14.63;6.37;;;14.40;99.90;;;;;;5009989;28;20202;-77
2021/06/13 04:47:19;;;;;;;13.80;6.73;;;14.60;99.90;;;;;;5006279;28;20206;-77
2021/06/13 04:49:54;;;;;;;12.33;6.57;;;14.70;99.90;;;;;;4996180;28;20271;-77
2021/06/13 04:52:22;;;;;;;19.83;7.03;;;14.60;99.90;;;;;;5003477;28;20301;-76
2021/06/13 04:55:26;;;;;;;10.10;6.03;;;14.60;99.90;;;;;;4990631;28;20250;-78
2021/06/13 04:58:04;;;;;;;19.33;7.10;;;14.50;99.90;;;;;;4988196;28;20251;-78
2021/06/13 05:00:31;;;;;;;10.83;6.20;;;14.70;99.90;;;;;;5007956;28;20218;-78
2021/06/13 05:02:59;;;;;;;11.03;6.00;;;14.70;99.90;;;;;;4992421;28;20621;-77
2021/06/13 05:05:27;;;;;;;12.13;6.00;;;14.80;99.90;;;;;;4991535;28;20206;-77
2021/06/13 05:07:54;;;;;;;17.03;6.93;;;14.90;99.90;;;;;;4992999;28;20585;-77
2021/06/13 05:10:20;;;;;;;15.37;7.40;;;14.80;99.90;;;;;;4995127;28;20586;-77
2021/06/13 05:12:50;;;;;;;10.83;5.40;;;14.90;99.90;;;;;;4996982;28;20267;-77
2021/06/13 05:15:19;;;;;;;14.17;6.60;;;15.00;99.90;;;;;;5000915;28;20592;-77
2021/06/13 05:17:46;;;;;;;11.57;5.87;;;15.10;73.80;;;;;;4999259;28;20278;-77
2021/06/13 05:20:14;;;;;;;13.10;6.37;;;15.00;53.60;;;;;;4986305;28;20252;-77
2021/06/13 05:23:01;;;;;;;9.47;6.10;;;15.20;92.40;;;;;;5015805;28;20200;-77
2021/06/13 05:25:33;;;;;;;14.00;6.57;;;15.40;10.80;;;;;;5012562;28;20235;-77
2021/06/13 05:28:01;;;;;;;14.67;7.30;;;15.30;52.90;;;;;;5017067;28;20298;-77
2021/06/13 05:30:30;;;;;;;13.90;6.20;;;15.50;21.40;;;;;;4990084;28;20234;-77
2021/06/13 05:32:58;;;;;;;13.10;6.47;;;15.60;1.00;;;;;;5001682;28;20232;-77
2021/06/13 05:35:26;;;;;;;15.37;6.03;;;15.80;1.00;;;;;;4997784;28;20201;-77
2021/06/13 05:37:54;;;;;;;11.57;6.07;;;15.80;1.00;;;;;;5020731;28;20261;-77
2021/06/13 05:40:22;;;;;;;16.30;6.57;;;15.60;1.00;;;;;;5011567;28;20241;-75
2021/06/13 05:42:51;;;;;;;14.97;6.60;;;15.60;1.00;;;;;;5001500;28;20197;-75
2021/06/13 05:45:19;;;;;;;17.77;7.03;;;15.80;1.00;;;;;;5029950;28;20539;-77
2021/06/13 05:47:46;;;;;;;15.93;6.73;;;16.00;1.00;;;;;;5012541;28;20297;-77
2021/06/13 05:50:14;;;;;;;16.33;6.50;;;16.00;1.00;;;;;;4997166;28;20621;-77
2021/06/13 05:52:41;;;;;;;14.30;6.90;;;15.90;1.00;;;;;;5017778;28;20231;-77
2021/06/13 05:55:09;;;;;;;11.20;5.27;;;15.90;1.00;;;;;;5019204;28;20215;-77
2021/06/13 05:57:36;;;;;;;12.03;5.70;;;16.10;1.00;;;;;;5017055;28;20545;-77
2021/06/13 06:00:10;;;;;;;13.37;5.27;;;16.20;1.00;;;;;;5017880;28;20256;-77
2021/06/13 06:02:38;;;;;;;16.37;4.97;;;16.40;1.00;;;;;;5022913;28;20757;-77
2021/06/13 06:05:06;;;;;;;10.53;4.87;;;16.40;1.00;;;;;;5008989;28;20226;-78
2021/06/13 06:07:34;;;;;;;11.00;4.57;;;16.40;1.00;;;;;;4978106;28;20199;-78
2021/06/13 06:10:01;;;;;;;9.20;4.30;;;16.40;1.00;;;;;;5002689;28;20193;-78
2021/06/13 06:12:28;;;;;;;10.43;4.73;;;16.40;1.00;;;;;;5001568;28;20207;-78
2021/06/13 06:14:55;;;;;;;12.97;4.87;;;16.60;1.00;;;;;;5017265;28;20219;-78
2021/06/13 06:17:22;;;;;;;9.33;4.63;;;16.70;1.00;;;;;;5001765;28;20277;-78
2021/06/13 06:19:49;;;;;;;7.67;4.70;;;16.70;1.00;;;;;;4999609;28;20877;-78
2021/06/13 06:22:16;;;;;;;11.47;4.53;;;16.50;1.00;;;;;;5013079;28;20276;-76
2021/06/13 06:24:43;;;;;;;12.70;4.40;;;16.80;1.00;;;;;;5013865;28;20324;-77
2021/06/13 06:27:11;;;;;;;7.27;3.60;;;16.80;1.00;;;;;;5014202;28;20203;-77
2021/06/13 06:29:38;;;;;;;10.53;3.57;;;16.80;1.00;;;;;;5011730;28;20273;-76
2021/06/13 06:32:05;;;;;;;8.43;4.37;;;16.90;1.00;;;;;;5010424;28;20243;-77
2021/06/13 06:34:32;;;;;;;15.23;4.63;;;17.00;1.00;;;;;;5005269;28;20252;-76
2021/06/13 06:36:58;;;;;;;6.73;3.43;;;17.20;99.90;;;;;;5013270;28;20253;-77
2021/06/13 06:39:25;;;;;;;6.47;3.43;;;17.10;99.90;;;;;;4999441;28;20196;-75
2021/06/13 06:41:52;;;;;;;8.97;4.20;;;17.30;99.90;;;;;;4993854;28;20215;-78
2021/06/13 06:44:19;;;;;;;11.50;4.13;;;17.10;1.00;;;;;;4997735;28;20211;-77
2021/06/13 06:46:46;;;;;;;7.73;3.77;;;16.40;1.00;;;;;;4994725;28;20592;-78
2021/06/13 06:49:13;;;;;;;8.27;3.60;;;16.70;1.00;;;;;;5011281;28;20671;-78
2021/06/13 06:51:40;;;;;;;10.90;3.77;;;17.30;1.00;;;;;;4987628;28;20259;-76
2021/06/13 06:54:07;;;;;;;9.13;4.20;;;17.80;99.90;;;;;;5008892;28;20270;-75
2021/06/13 06:56:34;;;;;;;10.37;3.63;;;17.80;1.00;;;;;;5008868;28;20219;-77
2021/06/13 06:59:01;;;;;;;10.10;4.00;;;17.80;99.90;;;;;;4999898;28;20209;-79
2021/06/13 07:01:28;;;;;;;12.43;4.07;;;18.00;99.90;;;;;;5000451;28;20695;-78
2021/06/13 07:03:55;;;;;;;9.57;3.90;;;18.20;99.90;;;;;;5011941;28;20282;-78
2021/06/13 07:06:22;;;;;;;5.80;3.23;;;18.60;1.00;;;;;;4991449;28;20261;-78
2021/06/13 07:08:49;;;;;;;11.73;3.30;;;18.60;1.00;;;;;;4993864;28;20233;-77
2021/06/13 07:11:16;;;;;;;7.70;3.73;;;18.70;1.00;;;;;;5010832;28;20655;-77
2021/06/13 07:13:45;;;;;;;8.40;3.30;;;18.80;99.90;;;;;;5003055;28;20229;-77
2021/06/13 07:16:12;;;;;;;9.80;3.70;;;18.60;99.90;;;;;;4974892;28;20564;-77
2021/06/13 07:18:39;;;;;;;9.33;3.40;;;18.30;1.00;;;;;;5012940;28;20200;-77
2021/06/13 07:21:06;;;;;;;7.60;3.40;;;18.00;1.00;;;;;;4989077;28;20273;-77
2021/06/13 07:23:34;;;;;;;10.47;3.03;;;18.50;99.90;;;;;;5028904;28;20755;-77
2021/06/13 07:26:02;;;;;;;7.10;3.10;;;18.60;1.00;;;;;;5000011;28;20287;-77
2021/06/13 07:28:32;;;;;;;4.80;2.80;;;18.70;1.00;;;;;;5013289;28;20560;-78
2021/06/13 07:31:02;;;;;;;6.18;3.20;;;19.00;99.90;;;;;;4994896;28;20750;-76
2021/06/13 07:33:29;;;;;;;5.27;2.80;;;18.70;1.00;;;;;;5031544;28;20688;-76
2021/06/13 07:35:56;;;;;;;6.17;2.40;;;19.60;1.00;;;;;;5030755;28;20232;-76
2021/06/13 07:38:24;;;;;;;5.40;2.23;;;21.00;1.00;;;;;;4997858;28;20204;-77
2021/06/13 07:40:51;;;;;;;7.03;3.07;;;22.40;99.90;;;;;;4996172;28;20252;-76
2021/06/13 07:43:18;;;;;;;5.83;2.67;;;21.60;38.60;;;;;;5010729;28;20638;-75
2021/06/13 07:45:46;;;;;;;6.57;2.97;;;22.00;99.90;;;;;;5006447;28;20505;-76
2021/06/13 07:48:15;;;;;;;6.27;2.60;;;21.60;99.90;;;;;;5004927;28;20308;-76
2021/06/13 07:50:42;;;;;;;6.80;2.70;;;20.20;99.90;;;;;;4992688;28;20217;-76
2021/06/13 07:53:10;;;;;;;4.27;2.70;;;20.10;1.00;;;;;;4994700;28;20274;-76
2021/06/13 07:55:38;;;;;;;5.20;3.00;;;21.10;99.90;;;;;;5024872;28;20201;-77
2021/06/13 07:58:05;;;;;;;6.33;2.90;;;21.60;99.90;;;;;;5008776;28;20303;-75
2021/06/13 08:00:33;;;;;;;6.33;2.87;;;22.50;1.00;;;;;;5004826;28;20365;-76
2021/06/13 08:03:00;;;;;;;5.27;2.60;;;21.60;1.00;;;;;;5013421;28;20196;-75
2021/06/13 08:05:29;;;;;;;7.53;3.27;;;20.80;20.50;;;;;;5021387;28;20215;-78
2021/06/13 08:08:02;;;;;;;4.40;3.03;;;20.60;1.00;;;;;;5010171;28;20209;-75
2021/06/13 08:10:29;;;;;;;8.03;3.77;;;20.70;99.90;;;;;;5021636;28;20208;-75
2021/06/13 08:12:57;;;;;;;6.23;2.33;;;22.00;1.00;;;;;;5026756;28;20216;-77
2021/06/13 08:15:25;;;;;;;4.67;2.90;;;21.70;1.00;;;;;;5013223;28;20208;-76
2021/06/13 08:17:52;;;;;;;6.17;2.70;;;21.90;1.00;;;;;;5014211;28;20231;-76
2021/06/13 08:20:19;;;;;;;6.47;2.80;;;22.40;1.00;;;;;;5008925;28;20239;-76
2021/06/13 08:22:46;;;;;;;5.13;2.37;;;22.40;1.00;;;;;;5029918;28;20255;-75
2021/06/13 08:25:15;;;;;;;7.37;2.87;;;23.40;1.00;;;;;;5018847;28;20200;-76
2021/06/13 08:27:42;;;;;;;4.90;2.87;;;24.10;99.90;;;;;;5011093;28;20288;-76
2021/06/13 08:30:12;;;;;;;3.73;2.80;;;22.40;1.00;;;;;;4996844;28;20277;-76
2021/06/13 08:32:40;;;;;;;6.80;3.50;;;22.10;1.00;;;;;;4988816;28;20732;-76
2021/06/13 08:35:08;;;;;;;6.50;2.70;;;22.90;1.00;;;;;;4992329;28;20588;-75
2021/06/13 08:37:35;;;;;;;5.60;3.03;;;22.70;1.00;;;;;;4980460;28;20206;-76
2021/06/13 08:40:05;;;;;;;10.43;3.10;;;24.10;99.90;;;;;;4982366;28;20606;-77
2021/06/13 08:42:32;;;;;;;6.17;2.53;;;22.60;99.90;;;;;;4977772;28;20229;-75
2021/06/13 08:44:58;;;;;;;5.03;2.63;;;22.20;1.00;;;;;;4987871;28;20660;-76
2021/06/13 08:47:27;;;;;;;4.57;2.97;;;23.00;1.00;;;;;;4994101;28;20202;-77
2021/06/13 08:49:54;;;;;;;4.87;2.60;;;23.50;99.90;;;;;;4986142;28;20225;-77
2021/06/13 08:52:21;;;;;;;5.53;2.73;;;22.50;99.90;;;;;;5008995;28;20308;-77
2021/06/13 08:54:48;;;;;;;7.60;2.53;;;23.70;99.90;;;;;;4994864;28;20209;-76
2021/06/13 08:57:15;;;;;;;4.07;2.40;;;25.10;99.90;;;;;;4992643;28;20263;-76
2021/06/13 08:59:44;;;;;;;5.47;2.13;;;24.00;99.90;;;;;;4985573;28;20682;-76
2021/06/13 09:02:11;;;;;;;5.63;2.40;;;24.50;99.90;;;;;;4997092;28;20277;-76
2021/06/13 09:04:38;;;;;;;6.97;2.73;;;25.00;99.90;;;;;;5007115;28;20252;-76
2021/06/13 09:07:25;;;;;;;6.10;2.80;;;24.30;99.90;;;;;;4976582;28;20284;-75
2021/06/13 09:09:55;;;;;;;4.57;2.40;;;25.50;99.90;;;;;;4972192;28;20264;-76
2021/06/13 09:12:23;;;;;;;4.77;2.63;;;26.50;99.90;;;;;;4987064;28;20206;-76
2021/06/13 09:14:52;;;;;;;6.67;2.60;;;24.90;99.90;;;;;;4990386;28;20197;-76
2021/06/13 09:17:23;;;;;;;5.00;3.10;;;24.90;99.90;;;;;;4988480;28;20216;-77
2021/06/13 09:20:09;;;;;;;6.67;2.47;;;23.60;99.90;;;;;;5011471;28;20292;-78
2021/06/13 09:22:37;;;;;;;5.57;2.37;;;24.50;99.90;;;;;;4999238;28;20245;-77
2021/06/13 09:25:05;;;;;;;4.23;2.87;;;24.90;99.90;;;;;;4967614;28;20228;-75
2021/06/13 09:27:32;;;;;;;4.33;2.33;;;25.30;99.90;;;;;;4991310;28;20629;-76
2021/06/13 09:29:59;;;;;;;6.77;2.63;;;25.10;99.90;;;;;;4993134;28;20283;-76
2021/06/13 09:32:27;;;;;;;6.23;2.73;;;25.50;99.90;;;;;;4983664;28;20275;-76
2021/06/13 09:35:20;;;;;;;6.50;2.67;;;25.30;99.90;;;;;;5017443;28;20260;-76
2021/06/13 09:38:06;;;;;;;5.97;2.73;;;25.00;99.90;;;;;;5038467;28;20229;-76
2021/06/13 09:40:34;;;;;;;4.73;2.67;;;24.90;99.90;;;;;;5022102;28;20241;-76
2021/06/13 09:43:31;;;;;;;4.70;2.73;;;24.80;99.90;;;;;;5020128;28;20287;-77
2021/06/13 09:46:29;;;;;;;5.10;2.23;;;25.40;98.80;;;;;;5018248;28;20686;-77
2021/06/13 09:49:07;;;;;;;5.03;2.27;;;25.20;96.90;;;;;;5015383;28;20648;-78
2021/06/13 09:51:50;;;;;;;3.93;2.47;;;25.90;96.30;;;;;;5017806;28;20209;-76
2021/06/13 09:54:19;;;;;;;4.33;2.60;;;24.90;97.90;;;;;;5025250;28;20203;-76
2021/06/13 09:56:46;;;;;;;4.77;2.50;;;24.50;96.90;;;;;;5012408;28;20629;-76
2021/06/13 09:59:15;;;;;;;4.43;2.10;;;24.20;99.90;;;;;;5008841;28;21907;-75
2021/06/13 10:01:53;;;;;;;5.00;2.43;;;25.30;97.00;;;;;;5027029;28;20234;-76
2021/06/13 10:04:21;;;;;;;5.10;2.37;;;25.50;90.10;;;;;;5011339;28;20287;-77
2021/06/13 10:06:50;;;;;;;5.80;2.40;;;25.00;96.40;;;;;;5021149;28;20262;-76
2021/06/13 10:09:19;;;;;;;5.37;2.57;;;25.20;89.50;;;;;;5028883;28;20275;-78
2021/06/13 10:11:48;;;;;;;4.87;2.27;;;24.40;92.00;;;;;;5009981;28;20620;-78
2021/06/13 10:14:17;;;;;;;6.53;2.37;;;25.00;93.40;;;;;;5025540;28;20203;-77
2021/06/13 10:16:51;;;;;;;4.13;2.30;;;25.00;92.30;;;;;;4995213;28;20235;-76
2021/06/13 10:19:21;;;;;;;5.50;2.27;;;25.00;91.70;;;;;;5014242;28;20215;-76
2021/06/13 10:21:50;;;;;;;4.57;1.73;;;24.70;99.90;;;;;;5010205;28;20310;-77
2021/06/13 10:24:25;;;;;;;4.90;2.53;;;24.80;93.40;;;;;;5037400;28;20225;-77
2021/06/13 10:26:58;;;;;;;5.13;2.77;;;24.00;90.40;;;;;;5008645;28;20204;-77
2021/06/13 10:29:30;;;;;;;3.60;2.20;;;24.20;99.90;;;;;;5022055;28;20290;-77
2021/06/13 10:31:59;;;;;;;3.83;2.40;;;24.40;92.70;;;;;;5025313;28;20332;-77
2021/06/13 10:34:28;;;;;;;4.70;2.37;;;24.40;96.50;;;;;;5029022;28;20210;-77
2021/06/13 10:36:57;;;;;;;5.57;2.47;;;24.90;97.30;;;;;;5001334;28;20203;-78
2021/06/13 10:39:28;;;;;;;4.40;2.70;;;25.40;90.30;;;;;;5025151;28;20246;-76
2021/06/13 10:41:55;;;;;;;4.63;2.50;;;25.10;86.40;;;;;;5028475;28;20254;-76
2021/06/13 10:44:25;;;;;;;4.83;2.37;;;24.40;89.70;;;;;;5024992;28;20204;-76
2021/06/13 10:47:13;;;;;;;5.57;3.10;;;25.20;81.40;;;;;;5028641;28;20238;-78
2021/06/13 10:49:41;;;;;;;6.47;3.50;;;25.50;92.20;;;;;;5008572;28;20196;-76
2021/06/13 10:52:20;;;;;;;5.97;2.63;;;25.20;91.80;;;;;;5030394;28;20265;-76
2021/06/13 10:54:53;;;;;;;6.33;3.30;;;25.70;90.10;;;;;;5010534;28;20302;-76
2021/06/13 10:57:21;;;;;;;6.67;3.00;;;25.70;85.50;;;;;;5032494;28;20202;-76
2021/06/13 10:59:56;;;;;;;7.83;3.33;;;25.80;91.50;;;;;;5036957;28;20207;-76
2021/06/13 11:02:24;;;;;;;6.40;2.50;;;25.70;75.80;;;;;;5014026;28;20229;-77
2021/06/13 11:05:03;;;;;;;4.80;2.50;;;25.50;90.90;;;;;;5011143;28;20661;-76
2021/06/13 11:07:34;;;;;;;4.93;2.60;;;25.70;88.90;;;;;;5028709;28;20200;-76
2021/06/13 11:12:55;;;;;;;4.70;2.40;;;28.10;67.00;;;;;;5025032;28;20286;-74
2021/06/13 11:15:22;;;;;;;6.73;3.00;;;29.10;73.80;;;;;;5003222;28;20201;-75
2021/06/13 11:18:04;;;;;;;5.97;3.03;;;29.00;66.10;;;;;;5016794;28;20240;-75
2021/06/13 11:20:33;;;;;;;4.53;2.90;;;28.10;56.20;;;;;;5012738;28;20625;-75
2021/06/13 11:23:05;;;;;;;4.80;2.37;;;27.50;58.60;;;;;;5029114;28;20267;-76
2021/06/13 11:25:37;;;;;;;6.55;3.13;;;28.10;59.30;;;;;;5025053;28;20752;-74
2021/06/13 11:28:19;;;;;;;4.80;2.47;;;27.40;50.30;;;;;;5007138;28;20299;-74
2021/06/13 11:30:50;;;;;;;5.85;2.78;;;27.10;54.90;;;;;;5028375;28;20279;-77
2021/06/13 11:33:39;;;;;;;5.03;2.60;;;27.40;56.00;;;;;;5012116;28;20719;-75
2021/06/13 11:36:15;;;;;;;3.78;2.05;;;28.40;54.10;;;;;;5006588;28;20806;-75
2021/06/13 11:39:13;;;;;;;6.07;2.58;;;29.20;55.50;;;;;;5016188;28;20641;-75
2021/06/13 11:41:45;;;;;;;5.35;2.22;;;28.50;49.40;;;;;;4995776;28;20239;-75
2021/06/13 11:44:21;;;;;;;5.32;3.25;;;29.90;71.00;;;;;;5024547;28;20208;-76
2021/06/13 11:46:52;;;;;;;7.65;2.65;;;28.40;42.20;;;;;;5035301;28;20243;-76
2021/06/13 11:49:21;;;;;;;5.65;2.85;;;29.20;47.40;;;;;;5017608;28;20205;-76
2021/06/13 11:52:00;;;;;;;6.57;3.10;;;28.50;43.30;;;;;;5008780;28;20318;-76
2021/06/13 11:54:35;;;;;;;6.90;2.50;;;28.40;39.70;;;;;;5008716;28;20239;-75
2021/06/13 11:57:12;;;;;;;6.47;2.63;;;29.00;47.50;;;;;;5021480;28;20203;-76
2021/06/13 11:59:44;;;;;;;4.45;2.50;;;28.90;43.30;;;;;;5026625;28;20587;-76
2021/06/13 12:02:16;;;;;;;3.55;2.65;;;29.50;40.70;;;;;;5014734;28;20224;-76
2021/06/13 12:04:45;;;;;;;12.45;4.70;;;29.20;40.50;;;;;;5030323;28;20232;-75
2021/06/13 12:07:17;;;;;;;5.25;2.47;;;26.60;40.90;;;;;;5008798;28;20228;-75
2021/06/13 12:09:45;;;;;;;6.03;3.13;;;27.40;50.60;;;;;;5031739;28;20232;-74
2021/06/13 12:12:14;;;;;;;6.38;3.35;;;27.80;44.20;;;;;;5034503;28;20216;-76
2021/06/13 12:14:45;;;;;;;7.03;3.53;;;27.50;37.90;;;;;;5002939;28;20236;-74
2021/06/13 12:17:23;;;;;;;5.72;3.10;;;28.10;44.40;;;;;;5028104;28;20220;-74
2021/06/13 12:19:52;;;;;;;7.38;3.28;;;28.20;50.20;;;;;;5009682;28;20295;-75
2021/06/13 12:22:43;;;;;;;6.60;3.10;;;28.70;47.80;;;;;;5031702;28;20317;-74
2021/06/13 12:28:07;;;;;;;5.55;2.60;;;28.90;42.40;;;;;;5026764;28;20261;-74
2021/06/13 12:30:35;;;;;;;3.95;2.95;;;28.70;40.30;;;;;;5010980;28;20292;-75
2021/06/13 12:33:06;;;;;;;4.07;2.60;;;29.40;42.70;;;;;;5016312;28;20331;-75
2021/06/13 12:35:34;;;;;;;4.82;2.95;;;29.30;44.60;;;;;;5012652;28;20275;-75
2021/06/13 12:38:08;;;;;;;4.97;3.08;;;29.90;44.60;;;;;;5006915;28;20217;-76
2021/06/13 12:40:37;;;;;;;5.88;2.88;;;29.20;37.30;;;;;;5007061;28;20240;-75
2021/06/13 12:43:05;;;;;;;4.90;2.63;;;29.40;42.30;;;;;;5031837;28;20268;-76
2021/06/13 12:45:34;;;;;;;5.95;2.72;;;29.40;41.00;;;;;;5032038;28;20254;-75
2021/06/13 12:48:06;;;;;;;6.85;3.55;;;29.30;45.50;;;;;;5012671;28;20716;-76
2021/06/13 12:50:35;;;;;;;6.20;2.88;;;29.30;40.80;;;;;;5011345;28;20207;-76
2021/06/13 12:53:05;;;;;;;6.32;3.20;;;28.70;39.30;;;;;;5028186;28;20224;-76
2021/06/13 12:55:56;;;;;;;4.53;2.95;;;27.90;39.20;;;;;;5012559;28;20201;-76
2021/06/13 12:58:24;;;;;;;3.58;2.40;;;28.10;41.90;;;;;;5013391;28;20664;-76
2021/06/13 13:00:56;;;;;;;5.93;2.72;;;29.10;42.00;;;;;;5002738;28;20254;-76
2021/06/13 13:03:23;;;;;;;4.90;2.45;;;28.50;34.10;;;;;;5013798;28;20217;-75
2021/06/13 13:06:04;;;;;;;7.50;2.47;;;28.20;33.60;;;;;;5013276;28;20236;-75
2021/06/13 13:08:39;;;;;;;5.90;2.25;;;28.10;30.00;;;;;;5010657;28;20706;-76